sensor_id;sensor_type;location;lat;lon;timestamp;temperature;humidity
6252;DHT22;3159;52.414;9.784;2023-03-30T00:01:02;10.80;99.90
6252;DHT22;3159;52.414;9.784;2023-03-30T00:03:29;10.80;99.90
6252;DHT22;3159;52.414;9.784;2023-03-30T00:06:01;10.80;99.90
6252;DHT22;3159;52.414;9.784;2023-03-30T00:08:29;10.70;99.90
6252;DHT22;3159;52.414;9.784;2023-03-30T00:11:01;10.80;99.90
6252;DHT22;3159;52.414;9.784;2023-03-30T00:13:28;10.70;99.90
6252;DHT22;3159;52.414;9.784;2023-03-30T00:15:57;10.80;99.90
6252;DHT22;3159;52.414;9.784;2023-03-30T00:18:24;11.00;99.90
6252;DHT22;3159;52.414;9.784;2023-03-30T00:20:51;10.90;99.90
6252;DHT22;3159;52.414;9.784;2023-03-30T00:23:19;10.90;99.90
6252;DHT22;3159;52.414;9.784;2023-03-30T00:25:45;10.70;99.90
6252;DHT22;3159;52.414;9.784;2023-03-30T00:28:12;10.70;99.90
6252;DHT22;3159;52.414;9.784;2023-03-30T00:30:39;10.70;99.90
6252;DHT22;3159;52.414;9.784;2023-03-30T00:33:07;10.70;99.90
6252;DHT22;3159;52.414;9.784;2023-03-30T00:35:34;10.80;99.90
6252;DHT22;3159;52.414;9.784;2023-03-30T00:38:01;10.80;99.90
6252;DHT22;3159;52.414;9.784;2023-03-30T00:40:29;10.80;99.90
6252;DHT22;3159;52.414;9.784;2023-03-30T00:42:58;10.70;99.90
6252;DHT22;3159;52.414;9.784;2023-03-30T00:45:26;10.80;99.90
6252;DHT22;3159;52.414;9.784;2023-03-30T00:48:00;10.80;99.90
6252;DHT22;3159;52.414;9.784;2023-03-30T00:50:32;10.70;99.90
6252;DHT22;3159;52.414;9.784;2023-03-30T00:53:05;10.80;99.90
6252;DHT22;3159;52.414;9.784;2023-03-30T00:55:35;10.80;99.90
6252;DHT22;3159;52.414;9.784;2023-03-30T00:58:03;10.80;99.90
6252;DHT22;3159;52.414;9.784;2023-03-30T01:00:31;10.70;99.90
6252;DHT22;3159;52.414;9.784;2023-03-30T01:03:01;10.70;99.90
6252;DHT22;3159;52.414;9.784;2023-03-30T01:05:31;10.70;99.90
6252;DHT22;3159;52.414;9.784;2023-03-30T01:08:00;10.90;99.90
6252;DHT22;3159;52.414;9.784;2023-03-30T01:10:32;10.80;99.90
6252;DHT22;3159;52.414;9.784;2023-03-30T01:12:59;10.70;99.90
6252;DHT22;3159;52.414;9.784;2023-03-30T01:15:26;10.80;99.90
6252;DHT22;3159;52.414;9.784;2023-03-30T01:18:18;10.90;99.90
6252;DHT22;3159;52.414;9.784;2023-03-30T01:24:18;10.90;99.90
6252;DHT22;3159;52.414;9.784;2023-03-30T01:26:53;10.90;99.90
6252;DHT22;3159;52.414;9.784;2023-03-30T01:29:43;11.00;99.90
6252;DHT22;3159;52.414;9.784;2023-03-30T01:32:45;10.90;99.90
6252;DHT22;3159;52.414;9.784;2023-03-30T01:35:31;10.90;99.90
6252;DHT22;3159;52.414;9.784;2023-03-30T01:38:30;10.90;99.90
6252;DHT22;3159;52.414;9.784;2023-03-30T01:41:10;10.80;99.90
6252;DHT22;3159;52.414;9.784;2023-03-30T01:43:46;11.00;99.90
6252;DHT22;3159;52.414;9.784;2023-03-30T01:46:18;10.90;99.90
6252;DHT22;3159;52.414;9.784;2023-03-30T01:48:55;10.80;99.90
6252;DHT22;3159;52.414;9.784;2023-03-30T01:51:26;10.80;99.90
6252;DHT22;3159;52.414;9.784;2023-03-30T01:53:59;10.90;99.90
6252;DHT22;3159;52.414;9.784;2023-03-30T01:56:30;10.90;99.90
6252;DHT22;3159;52.414;9.784;2023-03-30T01:59:02;10.90;99.90
6252;DHT22;3159;52.414;9.784;2023-03-30T02:01:33;10.90;99.90
6252;DHT22;3159;52.414;9.784;2023-03-30T02:04:03;10.90;99.90
6252;DHT22;3159;52.414;9.784;2023-03-30T02:06:34;11.00;99.90
6252;DHT22;3159;52.414;9.784;2023-03-30T02:09:05;10.90;99.90
6252;DHT22;3159;52.414;9.784;2023-03-30T02:11:35;10.90;99.90
6252;DHT22;3159;52.414;9.784;2023-03-30T02:14:04;10.80;99.90
6252;DHT22;3159;52.414;9.784;2023-03-30T02:16:37;10.70;99.90
6252;DHT22;3159;52.414;9.784;2023-03-30T02:19:06;10.90;99.90
6252;DHT22;3159;52.414;9.784;2023-03-30T02:21:33;10.80;99.90
6252;DHT22;3159;52.414;9.784;2023-03-30T02:24:02;10.80;99.90
6252;DHT22;3159;52.414;9.784;2023-03-30T02:26:31;10.90;99.90
6252;DHT22;3159;52.414;9.784;2023-03-30T02:29:00;10.80;99.90
6252;DHT22;3159;52.414;9.784;2023-03-30T02:31:27;10.80;99.90
6252;DHT22;3159;52.414;9.784;2023-03-30T02:34:06;10.90;99.90
6252;DHT22;3159;52.414;9.784;2023-03-30T02:36:49;10.80;99.90
6252;DHT22;3159;52.414;9.784;2023-03-30T02:39:28;10.90;99.90
6252;DHT22;3159;52.414;9.784;2023-03-30T02:42:23;10.80;99.90
6252;DHT22;3159;52.414;9.784;2023-03-30T02:45:01;10.70;99.90
6252;DHT22;3159;52.414;9.784;2023-03-30T02:47:35;10.80;99.90
6252;DHT22;3159;52.414;9.784;2023-03-30T02:50:09;10.80;99.90
6252;DHT22;3159;52.414;9.784;2023-03-30T02:52:47;10.80;99.90
6252;DHT22;3159;52.414;9.784;2023-03-30T02:55:19;10.80;99.90
6252;DHT22;3159;52.414;9.784;2023-03-30T02:57:56;10.80;99.90
6252;DHT22;3159;52.414;9.784;2023-03-30T03:00:31;10.80;99.90
6252;DHT22;3159;52.414;9.784;2023-03-30T03:03:05;10.90;99.90
6252;DHT22;3159;52.414;9.784;2023-03-30T03:05:35;10.90;99.90
6252;DHT22;3159;52.414;9.784;2023-03-30T03:08:02;11.00;99.90
6252;DHT22;3159;52.414;9.784;2023-03-30T03:10:29;10.90;99.90
6252;DHT22;3159;52.414;9.784;2023-03-30T03:12:55;10.90;99.90
6252;DHT22;3159;52.414;9.784;2023-03-30T03:15:22;11.00;99.90
6252;DHT22;3159;52.414;9.784;2023-03-30T03:17:51;11.00;99.90
6252;DHT22;3159;52.414;9.784;2023-03-30T03:20:18;11.00;99.90
6252;DHT22;3159;52.414;9.784;2023-03-30T03:22:44;11.10;99.90
6252;DHT22;3159;52.414;9.784;2023-03-30T03:25:11;11.10;99.90
6252;DHT22;3159;52.414;9.784;2023-03-30T03:27:38;11.10;99.90
6252;DHT22;3159;52.414;9.784;2023-03-30T03:30:06;11.10;99.90
6252;DHT22;3159;52.414;9.784;2023-03-30T03:32:33;11.20;99.90
6252;DHT22;3159;52.414;9.784;2023-03-30T03:35:01;11.10;99.90
6252;DHT22;3159;52.414;9.784;2023-03-30T03:37:28;11.00;99.90
6252;DHT22;3159;52.414;9.784;2023-03-30T03:39:54;11.10;99.90
6252;DHT22;3159;52.414;9.784;2023-03-30T03:42:21;11.20;99.90
6252;DHT22;3159;52.414;9.784;2023-03-30T03:44:48;11.20;99.90
6252;DHT22;3159;52.414;9.784;2023-03-30T03:47:15;11.20;99.90
6252;DHT22;3159;52.414;9.784;2023-03-30T03:49:42;11.20;99.90
6252;DHT22;3159;52.414;9.784;2023-03-30T03:52:10;11.30;99.90
6252;DHT22;3159;52.414;9.784;2023-03-30T03:54:37;11.30;99.90
6252;DHT22;3159;52.414;9.784;2023-03-30T03:57:04;11.30;99.90
6252;DHT22;3159;52.414;9.784;2023-03-30T03:59:31;11.30;99.90
6252;DHT22;3159;52.414;9.784;2023-03-30T04:01:58;11.30;99.90
6252;DHT22;3159;52.414;9.784;2023-03-30T04:04:25;11.30;99.90
6252;DHT22;3159;52.414;9.784;2023-03-30T04:06:52;11.30;99.90
6252;DHT22;3159;52.414;9.784;2023-03-30T04:09:20;11.30;99.90
6252;DHT22;3159;52.414;9.784;2023-03-30T04:11:47;11.40;99.90
6252;DHT22;3159;52.414;9.784;2023-03-30T04:14:14;11.30;99.90
6252;DHT22;3159;52.414;9.784;2023-03-30T04:16:41;11.30;99.90
6252;DHT22;3159;52.414;9.784;2023-03-30T04:19:08;11.30;99.90
6252;DHT22;3159;52.414;9.784;2023-03-30T04:21:37;11.40;99.90
6252;DHT22;3159;52.414;9.784;2023-03-30T04:24:05;11.40;99.90
6252;DHT22;3159;52.414;9.784;2023-03-30T04:26:34;11.40;99.90
6252;DHT22;3159;52.414;9.784;2023-03-30T04:29:01;11.40;99.90
6252;DHT22;3159;52.414;9.784;2023-03-30T04:31:29;11.50;99.90
6252;DHT22;3159;52.414;9.784;2023-03-30T04:33:59;11.50;99.90
6252;DHT22;3159;52.414;9.784;2023-03-30T04:36:27;11.50;99.90
6252;DHT22;3159;52.414;9.784;2023-03-30T04:38:54;11.60;99.90
6252;DHT22;3159;52.414;9.784;2023-03-30T04:41:25;11.70;99.90
6252;DHT22;3159;52.414;9.784;2023-03-30T04:44:00;11.50;99.90
6252;DHT22;3159;52.414;9.784;2023-03-30T04:46:27;11.50;99.90
6252;DHT22;3159;52.414;9.784;2023-03-30T04:48:53;11.60;99.90
6252;DHT22;3159;52.414;9.784;2023-03-30T04:51:20;11.70;99.90
6252;DHT22;3159;52.414;9.784;2023-03-30T04:53:47;11.60;99.90
6252;DHT22;3159;52.414;9.784;2023-03-30T04:56:14;11.60;99.90
6252;DHT22;3159;52.414;9.784;2023-03-30T04:58:41;11.60;99.90
6252;DHT22;3159;52.414;9.784;2023-03-30T05:01:09;11.60;99.90
6252;DHT22;3159;52.414;9.784;2023-03-30T05:03:36;11.60;99.90
6252;DHT22;3159;52.414;9.784;2023-03-30T05:06:04;11.60;99.90
6252;DHT22;3159;52.414;9.784;2023-03-30T05:08:31;11.60;99.90
6252;DHT22;3159;52.414;9.784;2023-03-30T05:11:00;11.60;99.90
6252;DHT22;3159;52.414;9.784;2023-03-30T05:13:27;11.60;99.90
6252;DHT22;3159;52.414;9.784;2023-03-30T05:15:54;11.60;99.90
6252;DHT22;3159;52.414;9.784;2023-03-30T05:18:22;11.60;99.90
6252;DHT22;3159;52.414;9.784;2023-03-30T05:20:49;11.70;99.90
6252;DHT22;3159;52.414;9.784;2023-03-30T05:23:16;11.70;99.90
6252;DHT22;3159;52.414;9.784;2023-03-30T05:25:43;11.80;99.90
6252;DHT22;3159;52.414;9.784;2023-03-30T05:28:11;11.80;99.90
6252;DHT22;3159;52.414;9.784;2023-03-30T05:30:38;11.80;99.90
6252;DHT22;3159;52.414;9.784;2023-03-30T05:33:05;11.80;99.90
6252;DHT22;3159;52.414;9.784;2023-03-30T05:35:35;11.80;99.90
6252;DHT22;3159;52.414;9.784;2023-03-30T05:38:02;11.90;99.90
6252;DHT22;3159;52.414;9.784;2023-03-30T05:40:30;11.80;99.90
6252;DHT22;3159;52.414;9.784;2023-03-30T05:42:56;11.80;99.90
6252;DHT22;3159;52.414;9.784;2023-03-30T05:45:23;11.70;99.90
6252;DHT22;3159;52.414;9.784;2023-03-30T05:47:52;11.90;99.90
6252;DHT22;3159;52.414;9.784;2023-03-30T05:50:19;11.90;99.90
6252;DHT22;3159;52.414;9.784;2023-03-30T05:52:47;11.90;99.90
6252;DHT22;3159;52.414;9.784;2023-03-30T05:55:14;11.90;99.90
6252;DHT22;3159;52.414;9.784;2023-03-30T05:57:41;11.90;99.90
6252;DHT22;3159;52.414;9.784;2023-03-30T06:00:11;12.00;99.90
6252;DHT22;3159;52.414;9.784;2023-03-30T06:02:39;12.00;99.90
6252;DHT22;3159;52.414;9.784;2023-03-30T06:05:07;12.10;99.90
6252;DHT22;3159;52.414;9.784;2023-03-30T06:07:34;12.10;99.90
6252;DHT22;3159;52.414;9.784;2023-03-30T06:10:04;12.20;99.90
6252;DHT22;3159;52.414;9.784;2023-03-30T06:12:32;12.20;99.90
6252;DHT22;3159;52.414;9.784;2023-03-30T06:14:59;12.30;99.90
6252;DHT22;3159;52.414;9.784;2023-03-30T06:17:27;12.40;99.90
6252;DHT22;3159;52.414;9.784;2023-03-30T06:19:54;12.50;99.90
6252;DHT22;3159;52.414;9.784;2023-03-30T06:22:20;12.60;99.90
6252;DHT22;3159;52.414;9.784;2023-03-30T06:24:47;12.60;99.90
6252;DHT22;3159;52.414;9.784;2023-03-30T06:27:15;12.60;99.90
6252;DHT22;3159;52.414;9.784;2023-03-30T06:29:42;12.70;99.90
6252;DHT22;3159;52.414;9.784;2023-03-30T06:32:09;12.80;99.90
6252;DHT22;3159;52.414;9.784;2023-03-30T06:34:36;12.90;99.90
6252;DHT22;3159;52.414;9.784;2023-03-30T06:37:05;13.00;99.90
6252;DHT22;3159;52.414;9.784;2023-03-30T06:39:32;13.10;99.90
6252;DHT22;3159;52.414;9.784;2023-03-30T06:42:02;13.20;99.90
6252;DHT22;3159;52.414;9.784;2023-03-30T06:44:30;13.30;99.90
6252;DHT22;3159;52.414;9.784;2023-03-30T06:46:58;13.30;99.90
6252;DHT22;3159;52.414;9.784;2023-03-30T06:49:25;13.40;99.90
6252;DHT22;3159;52.414;9.784;2023-03-30T06:51:52;13.40;99.90
6252;DHT22;3159;52.414;9.784;2023-03-30T06:54:19;13.40;99.90
6252;DHT22;3159;52.414;9.784;2023-03-30T06:56:46;13.50;99.90
6252;DHT22;3159;52.414;9.784;2023-03-30T06:59:13;13.50;99.90
6252;DHT22;3159;52.414;9.784;2023-03-30T07:01:41;13.50;99.90
6252;DHT22;3159;52.414;9.784;2023-03-30T07:04:09;13.50;99.90
6252;DHT22;3159;52.414;9.784;2023-03-30T07:06:35;13.50;99.90
6252;DHT22;3159;52.414;9.784;2023-03-30T07:09:02;13.50;99.90
6252;DHT22;3159;52.414;9.784;2023-03-30T07:11:30;13.50;99.90
6252;DHT22;3159;52.414;9.784;2023-03-30T07:13:57;13.50;99.90
6252;DHT22;3159;52.414;9.784;2023-03-30T07:16:26;13.60;99.90
6252;DHT22;3159;52.414;9.784;2023-03-30T07:18:54;13.60;99.90
6252;DHT22;3159;52.414;9.784;2023-03-30T07:21:21;13.60;99.90
6252;DHT22;3159;52.414;9.784;2023-03-30T07:23:48;13.70;99.90
6252;DHT22;3159;52.414;9.784;2023-03-30T07:26:15;13.80;99.90
6252;DHT22;3159;52.414;9.784;2023-03-30T07:28:42;13.80;99.90
6252;DHT22;3159;52.414;9.784;2023-03-30T07:31:11;13.70;99.90
6252;DHT22;3159;52.414;9.784;2023-03-30T07:33:38;13.80;99.90
6252;DHT22;3159;52.414;9.784;2023-03-30T07:36:07;13.80;99.90
6252;DHT22;3159;52.414;9.784;2023-03-30T07:38:34;13.90;99.90
6252;DHT22;3159;52.414;9.784;2023-03-30T07:41:05;13.90;99.90
6252;DHT22;3159;52.414;9.784;2023-03-30T07:43:33;14.00;99.90
6252;DHT22;3159;52.414;9.784;2023-03-30T07:46:00;14.10;99.90
6252;DHT22;3159;52.414;9.784;2023-03-30T07:48:28;14.30;99.90
6252;DHT22;3159;52.414;9.784;2023-03-30T07:50:59;14.20;99.90
6252;DHT22;3159;52.414;9.784;2023-03-30T07:53:28;14.30;99.90
6252;DHT22;3159;52.414;9.784;2023-03-30T07:55:55;14.40;99.90
6252;DHT22;3159;52.414;9.784;2023-03-30T07:58:22;14.50;99.90
6252;DHT22;3159;52.414;9.784;2023-03-30T08:00:49;14.40;99.90
6252;DHT22;3159;52.414;9.784;2023-03-30T08:03:18;14.40;99.90
6252;DHT22;3159;52.414;9.784;2023-03-30T08:05:51;14.40;99.90
6252;DHT22;3159;52.414;9.784;2023-03-30T08:08:19;14.50;99.90
6252;DHT22;3159;52.414;9.784;2023-03-30T08:10:47;14.60;99.90
6252;DHT22;3159;52.414;9.784;2023-03-30T08:13:14;14.60;99.90
6252;DHT22;3159;52.414;9.784;2023-03-30T08:15:41;14.80;99.90
6252;DHT22;3159;52.414;9.784;2023-03-30T08:18:08;14.70;99.90
6252;DHT22;3159;52.414;9.784;2023-03-30T08:20:37;14.70;99.90
6252;DHT22;3159;52.414;9.784;2023-03-30T08:23:04;14.90;99.90
6252;DHT22;3159;52.414;9.784;2023-03-30T08:25:31;14.90;99.90
6252;DHT22;3159;52.414;9.784;2023-03-30T08:27:59;14.90;99.90
6252;DHT22;3159;52.414;9.784;2023-03-30T08:30:27;14.90;99.90
6252;DHT22;3159;52.414;9.784;2023-03-30T08:32:54;15.00;99.90
6252;DHT22;3159;52.414;9.784;2023-03-30T08:35:21;15.00;99.90
6252;DHT22;3159;52.414;9.784;2023-03-30T08:37:49;15.10;99.90
6252;DHT22;3159;52.414;9.784;2023-03-30T08:40:16;15.10;99.90
6252;DHT22;3159;52.414;9.784;2023-03-30T08:45:50;15.30;99.90
6252;DHT22;3159;52.414;9.784;2023-03-30T08:48:19;15.40;99.90
6252;DHT22;3159;52.414;9.784;2023-03-30T08:50:52;15.50;99.90
6252;DHT22;3159;52.414;9.784;2023-03-30T08:53:21;15.60;99.90
6252;DHT22;3159;52.414;9.784;2023-03-30T08:55:50;15.50;99.90
6252;DHT22;3159;52.414;9.784;2023-03-30T08:58:25;15.50;99.90
6252;DHT22;3159;52.414;9.784;2023-03-30T09:01:01;15.50;99.90
6252;DHT22;3159;52.414;9.784;2023-03-30T09:03:37;15.50;99.90
6252;DHT22;3159;52.414;9.784;2023-03-30T09:06:10;15.40;99.90
6252;DHT22;3159;52.414;9.784;2023-03-30T09:08:39;15.50;99.90
6252;DHT22;3159;52.414;9.784;2023-03-30T09:11:10;15.50;99.90
6252;DHT22;3159;52.414;9.784;2023-03-30T09:13:40;15.60;99.90
6252;DHT22;3159;52.414;9.784;2023-03-30T09:16:17;15.60;99.90
6252;DHT22;3159;52.414;9.784;2023-03-30T09:18:47;15.70;99.90
6252;DHT22;3159;52.414;9.784;2023-03-30T09:21:18;15.70;99.90
6252;DHT22;3159;52.414;9.784;2023-03-30T09:23:47;16.30;99.90
6252;DHT22;3159;52.414;9.784;2023-03-30T09:26:18;16.10;99.90
6252;DHT22;3159;52.414;9.784;2023-03-30T09:28:51;16.20;99.90
6252;DHT22;3159;52.414;9.784;2023-03-30T09:31:26;16.10;99.90
6252;DHT22;3159;52.414;9.784;2023-03-30T09:33:56;16.10;99.90
6252;DHT22;3159;52.414;9.784;2023-03-30T09:36:30;15.90;99.90
6252;DHT22;3159;52.414;9.784;2023-03-30T09:38:59;15.70;99.90
6252;DHT22;3159;52.414;9.784;2023-03-30T09:41:46;15.70;99.90
6252;DHT22;3159;52.414;9.784;2023-03-30T09:44:20;15.50;99.90
6252;DHT22;3159;52.414;9.784;2023-03-30T09:46:51;15.40;99.90
6252;DHT22;3159;52.414;9.784;2023-03-30T09:49:19;15.20;99.90
6252;DHT22;3159;52.414;9.784;2023-03-30T09:51:55;15.10;99.90
6252;DHT22;3159;52.414;9.784;2023-03-30T09:54:22;15.10;99.90
6252;DHT22;3159;52.414;9.784;2023-03-30T09:56:53;15.00;99.90
6252;DHT22;3159;52.414;9.784;2023-03-30T09:59:28;15.00;99.90
6252;DHT22;3159;52.414;9.784;2023-03-30T10:02:16;14.60;99.90
6252;DHT22;3159;52.414;9.784;2023-03-30T10:04:57;14.60;99.90
6252;DHT22;3159;52.414;9.784;2023-03-30T10:07:28;14.90;99.90
6252;DHT22;3159;52.414;9.784;2023-03-30T10:09:58;14.90;99.90
6252;DHT22;3159;52.414;9.784;2023-03-30T10:12:26;14.90;99.90
6252;DHT22;3159;52.414;9.784;2023-03-30T10:14:55;14.80;99.90
6252;DHT22;3159;52.414;9.784;2023-03-30T10:17:25;14.80;99.90
6252;DHT22;3159;52.414;9.784;2023-03-30T10:19:52;14.80;99.90
6252;DHT22;3159;52.414;9.784;2023-03-30T10:22:20;14.70;99.90
6252;DHT22;3159;52.414;9.784;2023-03-30T10:24:50;14.90;99.90
6252;DHT22;3159;52.414;9.784;2023-03-30T10:27:18;15.00;99.90
6252;DHT22;3159;52.414;9.784;2023-03-30T10:29:46;14.90;99.90
6252;DHT22;3159;52.414;9.784;2023-03-30T10:32:17;14.90;99.90
6252;DHT22;3159;52.414;9.784;2023-03-30T10:34:49;15.00;99.90
6252;DHT22;3159;52.414;9.784;2023-03-30T10:37:21;15.30;99.90
6252;DHT22;3159;52.414;9.784;2023-03-30T10:39:50;15.20;99.90
6252;DHT22;3159;52.414;9.784;2023-03-30T10:42:20;15.10;99.90
6252;DHT22;3159;52.414;9.784;2023-03-30T10:44:50;14.90;99.90
6252;DHT22;3159;52.414;9.784;2023-03-30T10:47:33;14.60;99.90
6252;DHT22;3159;52.414;9.784;2023-03-30T10:50:13;14.30;99.90
6252;DHT22;3159;52.414;9.784;2023-03-30T10:52:48;14.00;99.90
6252;DHT22;3159;52.414;9.784;2023-03-30T10:55:22;13.70;99.90
6252;DHT22;3159;52.414;9.784;2023-03-30T10:57:57;13.60;99.90
6252;DHT22;3159;52.414;9.784;2023-03-30T11:00:51;13.50;99.90
6252;DHT22;3159;52.414;9.784;2023-03-30T11:03:24;13.30;99.90
6252;DHT22;3159;52.414;9.784;2023-03-30T11:05:57;13.30;99.90
6252;DHT22;3159;52.414;9.784;2023-03-30T11:08:29;13.20;99.90
6252;DHT22;3159;52.414;9.784;2023-03-30T11:10:59;13.10;99.90
6252;DHT22;3159;52.414;9.784;2023-03-30T11:13:28;13.20;99.90
6252;DHT22;3159;52.414;9.784;2023-03-30T11:15:59;13.30;99.90
6252;DHT22;3159;52.414;9.784;2023-03-30T11:18:32;13.50;99.90
6252;DHT22;3159;52.414;9.784;2023-03-30T11:21:05;13.60;99.90
6252;DHT22;3159;52.414;9.784;2023-03-30T11:23:41;13.90;99.90
6252;DHT22;3159;52.414;9.784;2023-03-30T11:26:09;14.10;99.90
6252;DHT22;3159;52.414;9.784;2023-03-30T11:28:47;14.80;99.90
6252;DHT22;3159;52.414;9.784;2023-03-30T11:31:29;15.70;99.90
6252;DHT22;3159;52.414;9.784;2023-03-30T11:34:06;15.70;99.90
6252;DHT22;3159;52.414;9.784;2023-03-30T11:36:43;16.20;99.90
6252;DHT22;3159;52.414;9.784;2023-03-30T11:39:13;16.00;99.90
6252;DHT22;3159;52.414;9.784;2023-03-30T11:41:43;16.00;99.90
6252;DHT22;3159;52.414;9.784;2023-03-30T11:44:12;16.20;99.90
6252;DHT22;3159;52.414;9.784;2023-03-30T11:46:41;16.20;99.90
6252;DHT22;3159;52.414;9.784;2023-03-30T11:49:32;16.70;99.90
6252;DHT22;3159;52.414;9.784;2023-03-30T11:52:16;16.60;99.90
6252;DHT22;3159;52.414;9.784;2023-03-30T11:54:59;17.10;99.90
6252;DHT22;3159;52.414;9.784;2023-03-30T11:57:35;17.00;99.90
6252;DHT22;3159;52.414;9.784;2023-03-30T12:00:21;17.20;99.90
6252;DHT22;3159;52.414;9.784;2023-03-30T12:02:54;17.20;99.90
6252;DHT22;3159;52.414;9.784;2023-03-30T12:05:30;16.90;99.90
6252;DHT22;3159;52.414;9.784;2023-03-30T12:08:06;16.20;99.90
6252;DHT22;3159;52.414;9.784;2023-03-30T12:10:39;16.00;99.90
6252;DHT22;3159;52.414;9.784;2023-03-30T12:13:10;15.90;99.90
6252;DHT22;3159;52.414;9.784;2023-03-30T12:15:44;15.70;99.90
6252;DHT22;3159;52.414;9.784;2023-03-30T12:18:22;15.80;99.90
6252;DHT22;3159;52.414;9.784;2023-03-30T12:20:54;16.00;99.90
6252;DHT22;3159;52.414;9.784;2023-03-30T12:23:34;15.70;99.90
6252;DHT22;3159;52.414;9.784;2023-03-30T12:26:22;15.80;99.90
6252;DHT22;3159;52.414;9.784;2023-03-30T12:28:57;15.70;99.90
6252;DHT22;3159;52.414;9.784;2023-03-30T12:31:49;16.60;99.90
6252;DHT22;3159;52.414;9.784;2023-03-30T12:34:17;17.10;99.90
6252;DHT22;3159;52.414;9.784;2023-03-30T12:36:46;17.20;99.90
6252;DHT22;3159;52.414;9.784;2023-03-30T12:39:18;17.10;99.90
6252;DHT22;3159;52.414;9.784;2023-03-30T12:41:48;17.10;99.90
6252;DHT22;3159;52.414;9.784;2023-03-30T12:44:37;16.70;99.90
6252;DHT22;3159;52.414;9.784;2023-03-30T12:47:20;16.50;99.90
6252;DHT22;3159;52.414;9.784;2023-03-30T12:50:03;16.40;99.90
6252;DHT22;3159;52.414;9.784;2023-03-30T12:52:41;16.30;99.90
6252;DHT22;3159;52.414;9.784;2023-03-30T12:55:22;16.30;99.90
6252;DHT22;3159;52.414;9.784;2023-03-30T12:58:11;16.20;99.90
6252;DHT22;3159;52.414;9.784;2023-03-30T13:01:03;16.20;99.90
6252;DHT22;3159;52.414;9.784;2023-03-30T13:03:40;15.90;99.90
6252;DHT22;3159;52.414;9.784;2023-03-30T13:06:21;15.80;99.90
6252;DHT22;3159;52.414;9.784;2023-03-30T13:08:54;15.60;99.90
6252;DHT22;3159;52.414;9.784;2023-03-30T13:11:22;15.40;99.90
6252;DHT22;3159;52.414;9.784;2023-03-30T13:13:55;15.20;99.90
6252;DHT22;3159;52.414;9.784;2023-03-30T13:17:08;15.10;99.90
6252;DHT22;3159;52.414;9.784;2023-03-30T13:19:46;15.10;99.90
6252;DHT22;3159;52.414;9.784;2023-03-30T13:22:26;15.00;99.90
6252;DHT22;3159;52.414;9.784;2023-03-30T13:24:58;15.00;99.90
6252;DHT22;3159;52.414;9.784;2023-03-30T13:27:31;15.20;99.90
6252;DHT22;3159;52.414;9.784;2023-03-30T13:29:59;15.10;99.90
6252;DHT22;3159;52.414;9.784;2023-03-30T13:32:42;15.30;99.90
6252;DHT22;3159;52.414;9.784;2023-03-30T13:35:32;16.10;99.90
6252;DHT22;3159;52.414;9.784;2023-03-30T13:38:35;15.90;99.90
6252;DHT22;3159;52.414;9.784;2023-03-30T13:41:20;16.00;99.90
6252;DHT22;3159;52.414;9.784;2023-03-30T13:44:11;16.00;99.90
6252;DHT22;3159;52.414;9.784;2023-03-30T13:46:47;16.20;99.90
6252;DHT22;3159;52.414;9.784;2023-03-30T13:49:29;16.30;99.90
6252;DHT22;3159;52.414;9.784;2023-03-30T13:52:01;16.30;99.90
6252;DHT22;3159;52.414;9.784;2023-03-30T13:54:31;16.30;99.90
6252;DHT22;3159;52.414;9.784;2023-03-30T13:57:04;16.20;99.90
6252;DHT22;3159;52.414;9.784;2023-03-30T13:59:36;16.10;99.90
6252;DHT22;3159;52.414;9.784;2023-03-30T14:02:04;15.90;99.90
6252;DHT22;3159;52.414;9.784;2023-03-30T14:04:33;16.00;99.90
6252;DHT22;3159;52.414;9.784;2023-03-30T14:07:04;16.50;99.90
6252;DHT22;3159;52.414;9.784;2023-03-30T14:09:31;16.80;99.90
6252;DHT22;3159;52.414;9.784;2023-03-30T14:11:59;17.00;99.90
6252;DHT22;3159;52.414;9.784;2023-03-30T14:14:34;16.70;99.90
6252;DHT22;3159;52.414;9.784;2023-03-30T14:17:10;16.20;99.90
6252;DHT22;3159;52.414;9.784;2023-03-30T14:19:42;15.80;99.90
6252;DHT22;3159;52.414;9.784;2023-03-30T14:22:17;15.90;99.90
6252;DHT22;3159;52.414;9.784;2023-03-30T14:24:55;16.20;99.90
6252;DHT22;3159;52.414;9.784;2023-03-30T14:27:22;16.20;99.90
6252;DHT22;3159;52.414;9.784;2023-03-30T14:29:51;16.00;99.90
6252;DHT22;3159;52.414;9.784;2023-03-30T14:32:19;15.90;99.90
6252;DHT22;3159;52.414;9.784;2023-03-30T14:34:48;16.10;99.90
6252;DHT22;3159;52.414;9.784;2023-03-30T14:37:16;16.00;99.90
6252;DHT22;3159;52.414;9.784;2023-03-30T14:39:46;16.00;99.90
6252;DHT22;3159;52.414;9.784;2023-03-30T14:42:16;16.40;99.90
6252;DHT22;3159;52.414;9.784;2023-03-30T14:44:45;16.30;99.90
6252;DHT22;3159;52.414;9.784;2023-03-30T14:47:16;16.50;99.90
6252;DHT22;3159;52.414;9.784;2023-03-30T14:49:44;16.40;99.90
6252;DHT22;3159;52.414;9.784;2023-03-30T14:52:15;16.40;99.90
6252;DHT22;3159;52.414;9.784;2023-03-30T14:54:43;16.40;99.90
6252;DHT22;3159;52.414;9.784;2023-03-30T14:57:11;16.30;99.90
6252;DHT22;3159;52.414;9.784;2023-03-30T14:59:43;16.10;99.90
6252;DHT22;3159;52.414;9.784;2023-03-30T15:02:19;16.20;99.90
6252;DHT22;3159;52.414;9.784;2023-03-30T15:04:47;16.20;99.90
6252;DHT22;3159;52.414;9.784;2023-03-30T15:07:15;16.10;99.90
6252;DHT22;3159;52.414;9.784;2023-03-30T15:09:44;16.40;99.90
6252;DHT22;3159;52.414;9.784;2023-03-30T15:12:17;16.50;99.90
6252;DHT22;3159;52.414;9.784;2023-03-30T15:14:47;16.60;99.90
6252;DHT22;3159;52.414;9.784;2023-03-30T15:17:19;16.60;99.90
6252;DHT22;3159;52.414;9.784;2023-03-30T15:19:48;16.50;99.90
6252;DHT22;3159;52.414;9.784;2023-03-30T15:22:23;16.40;99.90
6252;DHT22;3159;52.414;9.784;2023-03-30T15:24:52;16.20;99.90
6252;DHT22;3159;52.414;9.784;2023-03-30T15:27:21;16.20;99.90
6252;DHT22;3159;52.414;9.784;2023-03-30T15:29:48;15.90;99.90
6252;DHT22;3159;52.414;9.784;2023-03-30T15:32:17;15.80;99.90
6252;DHT22;3159;52.414;9.784;2023-03-30T15:35:04;15.60;99.90
6252;DHT22;3159;52.414;9.784;2023-03-30T15:37:32;15.50;99.90
6252;DHT22;3159;52.414;9.784;2023-03-30T15:39:59;15.50;99.90
6252;DHT22;3159;52.414;9.784;2023-03-30T15:42:29;15.30;99.90
6252;DHT22;3159;52.414;9.784;2023-03-30T15:45:07;15.10;99.90
6252;DHT22;3159;52.414;9.784;2023-03-30T15:47:35;15.10;99.90
6252;DHT22;3159;52.414;9.784;2023-03-30T15:50:03;14.90;99.90
6252;DHT22;3159;52.414;9.784;2023-03-30T15:52:33;14.50;99.90
6252;DHT22;3159;52.414;9.784;2023-03-30T15:55:05;14.10;99.90
6252;DHT22;3159;52.414;9.784;2023-03-30T15:57:33;14.10;99.90
6252;DHT22;3159;52.414;9.784;2023-03-30T16:00:06;14.20;99.90
6252;DHT22;3159;52.414;9.784;2023-03-30T16:02:38;14.40;99.90
6252;DHT22;3159;52.414;9.784;2023-03-30T16:05:15;14.50;99.90
6252;DHT22;3159;52.414;9.784;2023-03-30T16:07:42;14.40;99.90
6252;DHT22;3159;52.414;9.784;2023-03-30T16:10:12;14.60;99.90
6252;DHT22;3159;52.414;9.784;2023-03-30T16:12:41;14.20;99.90
6252;DHT22;3159;52.414;9.784;2023-03-30T16:15:13;14.20;99.90
6252;DHT22;3159;52.414;9.784;2023-03-30T16:17:40;14.10;99.90
6252;DHT22;3159;52.414;9.784;2023-03-30T16:20:15;14.10;99.90
6252;DHT22;3159;52.414;9.784;2023-03-30T16:22:43;14.10;99.90
6252;DHT22;3159;52.414;9.784;2023-03-30T16:25:12;14.10;99.90
6252;DHT22;3159;52.414;9.784;2023-03-30T16:27:39;13.90;99.90
6252;DHT22;3159;52.414;9.784;2023-03-30T16:30:15;13.90;99.90
6252;DHT22;3159;52.414;9.784;2023-03-30T16:32:42;13.80;99.90
6252;DHT22;3159;52.414;9.784;2023-03-30T16:35:09;13.80;99.90